KEWB/EWB METAR and TAF weather

Enter ICAO airport designator
Station Type Date Time Source
KEWB METAR 2024/05/28 21:53 UTC NOAA

KEWB 282153Z 22012G19KT 10SM CLR 24/16 A2966 RMK AO2 SLP043 T02440156


Station Type Date Time Source
KEWB Decoded METAR 2024/05/28 21:53 UTC NOAA

NEW BEDFORD REGIONAL AIRPORT, MA, United States (KEWB) 41-41N 070-58W 23M
May 28, 2024 - 05:53 PM EDT / 2024.05.28 2153 UTC
Wind: from the SW (220 degrees) at 14 MPH (12 KT) gusting to 22 MPH (19 KT):0
Visibility: 10 mile(s):0
Sky conditions: clear
Temperature: 75.9 F (24.4 C)
Dew Point: 60.1 F (15.6 C)
Relative Humidity: 57%
Pressure (altimeter): 29.66 in. Hg (1004 hPa)
ob: KEWB 282153Z 22012G19KT 10SM CLR 24/16 A2966 RMK AO2 SLP043 T02440156
cycle: 22

Station Type Date Time Source
KEWB TAF UTC NOAA

Error!

Example: see airport list